Portada
METAR-TAF:

METAR-TAF

Aeropuertos :

Aeropuerto de Bluefields

Bluefields, Nicaragua

latitud: 12-00N, longitud: 083-46W, altitud: 5 m

Observación

El informe se hizo hace 7 horas y 24 minutos, a las 23:00 UTC
Viento 4 kt del este
Temperatura 28°C
Humedad 84%
Presión 1011 hPa
Visibilidad 10 km o más
Nubes dispersas a una altura de 1800 ft
Nubes dispersas a una altura de 7000 ft

METAR: MNBL 112300Z 09004KT 9999 SCT018 SCT070 28/25 Q1011

Hora: 00:24 (06:24 UTC)

Pronóstico

El informe se hizo hace 8 horas y 36 minutos, a las 21:48 UTC
Pronóstico válido del 12 a las 00 UTC al 12 a las 24 UTC
Viento 6 kt del este
Visibilidad: 7000 m
Cielo nuboso a una altura de 1700 ft
Nubes dispersas a una altura de 7000 ft
Temporalmente
del 12 a las 03 UTC al 12 a las 12 UTC
Visibilidad: 5000 m

TAF: MNBL 122148Z 1200/1224 10006KT 7000 DZ/VCRA BKN017 SCT070 TEMPO 1203/1212 5000 +DZ/RA

Observaciones y pronósticos meteorológicos de más de 4000 aeropuertos (mensajes METAR y TAF).

Los puntos amarillos y rojos representan las estaciones disponibles.

Ponga el ratón en el punto deseado para ver el nombre de la estación.

Haga clic para ver las observaciones y los pronósticos meteorológicos.

Para cambiar el mapa : haga clic en los botones verdes con una cruz de color negro para hacer un zoom, en el botón verde con un guión para alejar o en las flechas verdes para mapas adyacentes.


METAR-TAF: